createdAt,value
2023-02-17T00:00:41.512Z,18.40
2023-02-17T00:04:17.636Z,22.77
2023-02-17T00:06:09.912Z,23.50
2023-02-17T00:08:40.348Z,23.25
2023-02-17T00:11:10.477Z,19.92
2023-02-17T00:13:40.511Z,22.67
2023-02-17T00:16:12.791Z,19.42
2023-02-17T00:18:43.309Z,22.40
2023-02-17T00:21:27.237Z,26.13
2023-02-17T00:23:58.959Z,22.45
2023-02-17T00:26:28.971Z,23.95
2023-02-17T00:29:01.525Z,23.48
2023-02-17T00:34:19.210Z,27.30
2023-02-17T00:36:49.320Z,21.08
2023-02-17T00:39:20.312Z,22.95
2023-02-17T00:41:53.405Z,18.75
2023-02-17T00:44:27.264Z,20.23
2023-02-17T00:46:57.342Z,23.30
2023-02-17T00:49:30.671Z,21.83
2023-02-17T00:52:04.467Z,24.25
2023-02-17T00:54:36.460Z,23.08
2023-02-17T00:57:07.006Z,19.83
2023-02-17T00:59:37.009Z,22.92
2023-02-17T01:02:06.945Z,21.90
2023-02-17T01:04:38.953Z,24.60
2023-02-17T01:07:09.410Z,23.35
2023-02-17T01:09:39.741Z,23.43
2023-02-17T01:12:09.588Z,21.75
2023-02-17T01:14:40.012Z,23.45
2023-02-17T01:17:10.312Z,24.83
2023-02-17T01:19:40.327Z,22.63
2023-02-17T01:22:10.216Z,22.65
2023-02-17T01:24:41.581Z,24.15
2023-02-17T01:29:42.290Z,24.38
2023-02-17T01:32:12.458Z,21.63
2023-02-17T01:34:44.090Z,25.20
2023-02-17T01:37:14.538Z,21.17
2023-02-17T01:39:44.805Z,19.27
2023-02-17T01:42:23.577Z,19.65
2023-02-17T01:48:35.063Z,22.95
2023-02-17T01:51:12.663Z,21.50
2023-02-17T01:53:45.090Z,21.55
2023-02-17T01:56:17.819Z,19.25
2023-02-17T01:58:56.394Z,20.95
2023-02-17T02:01:26.685Z,19.98
2023-02-17T02:03:56.987Z,19.67
2023-02-17T02:06:30.872Z,21.70
2023-02-17T02:09:25.100Z,21.08
2023-02-17T02:11:55.735Z,17.27
2023-02-17T02:14:26.171Z,17.57
2023-02-17T02:17:05.007Z,17.58
2023-02-17T02:20:04.735Z,17.95
2023-02-17T02:22:40.715Z,21.75
2023-02-17T02:25:29.833Z,22.10
2023-02-17T02:28:19.551Z,18.83
2023-02-17T02:31:02.774Z,20.48
2023-02-17T02:33:50.366Z,20.27
2023-02-17T02:36:44.608Z,21.85
2023-02-17T02:39:23.514Z,21.00
2023-02-17T02:42:01.678Z,23.23
2023-02-17T02:44:31.755Z,19.77
2023-02-17T02:47:05.370Z,20.20
2023-02-17T02:49:40.141Z,20.45
2023-02-17T02:52:18.538Z,19.67
2023-02-17T02:55:07.156Z,17.83
2023-02-17T02:58:01.715Z,19.77
2023-02-17T03:00:35.609Z,21.42
2023-02-17T03:03:13.207Z,21.33
2023-02-17T03:06:20.348Z,17.23
2023-02-17T03:08:58.052Z,20.85
2023-02-17T03:11:34.874Z,20.25
2023-02-17T03:14:19.674Z,18.40
2023-02-17T03:16:50.941Z,19.27
2023-02-17T03:19:24.457Z,19.50
2023-02-17T03:22:31.370Z,19.65
2023-02-17T03:25:03.367Z,20.45
2023-02-17T03:27:33.763Z,19.33
2023-02-17T03:30:03.939Z,20.10
2023-02-17T03:32:33.824Z,19.60
2023-02-17T13:53:00.745Z,37.70
2023-02-17T13:55:31.577Z,36.85
2023-02-17T13:58:02.767Z,39.60
2023-02-17T14:00:34.577Z,119.82
2023-02-17T14:05:50.351Z,41.03
2023-02-17T14:08:22.986Z,38.55
2023-02-17T14:10:53.560Z,37.35
2023-02-17T14:13:25.936Z,40.92
2023-02-17T14:16:01.782Z,45.15
2023-02-17T14:18:37.214Z,42.25
2023-02-17T14:21:11.189Z,44.72
2023-02-17T14:24:00.864Z,39.72
2023-02-17T14:26:50.512Z,41.17
2023-02-17T14:29:20.966Z,45.72
2023-02-17T14:31:54.737Z,42.95
2023-02-17T14:34:33.286Z,39.25
2023-02-17T14:37:27.098Z,43.85
2023-02-17T14:39:57.287Z,38.22
2023-02-17T14:42:27.256Z,41.30
2023-02-17T14:44:57.259Z,38.72
2023-02-17T14:47:27.227Z,38.58
2023-02-17T14:49:57.289Z,44.80
2023-02-17T14:52:27.624Z,49.63
2023-02-17T14:54:57.820Z,34.78
2023-02-17T14:57:30.569Z,37.60
2023-02-17T15:00:00.824Z,38.53
2023-02-17T15:02:32.569Z,37.65
2023-02-17T15:05:02.814Z,38.65
2023-02-17T15:07:32.978Z,50.38
2023-02-17T15:10:03.207Z,36.63
2023-02-17T15:12:33.545Z,37.90
2023-02-17T15:15:04.834Z,39.67
2023-02-17T15:17:37.711Z,42.95
2023-02-17T15:20:08.379Z,43.40
2023-02-17T15:22:43.817Z,37.00
2023-02-17T15:25:24.529Z,50.65
2023-02-17T15:27:54.821Z,44.40
2023-02-17T15:30:26.884Z,33.42
2023-02-17T15:32:59.510Z,38.08
2023-02-17T15:35:30.895Z,34.47
2023-02-17T15:40:32.422Z,34.00
2023-02-17T15:43:04.291Z,33.92
2023-02-17T15:45:36.726Z,37.70
2023-02-17T15:48:29.417Z,39.63
2023-02-17T15:50:59.624Z,34.25
2023-02-17T15:53:34.729Z,36.70
2023-02-17T15:56:07.876Z,40.90
2023-02-17T15:58:38.828Z,36.75
2023-02-17T16:01:09.181Z,37.03
2023-02-17T16:03:40.483Z,36.38
2023-02-17T16:08:42.324Z,36.33
2023-02-17T16:11:17.053Z,37.50
2023-02-17T16:13:48.893Z,35.88
2023-02-17T16:16:22.907Z,38.42
2023-02-17T16:18:54.484Z,38.50
2023-02-17T16:21:27.430Z,37.97
2023-02-17T16:24:01.968Z,38.00
2023-02-17T16:26:36.158Z,40.35
2023-02-17T16:29:17.664Z,36.10
2023-02-17T16:34:26.911Z,38.58
2023-02-17T16:37:01.792Z,42.03
2023-02-17T16:39:32.765Z,36.35
2023-02-17T16:42:05.021Z,38.60
2023-02-17T16:44:35.314Z,40.38
2023-02-17T16:47:05.681Z,40.67
2023-02-17T16:49:41.530Z,40.63
2023-02-17T16:52:27.384Z,38.10
2023-02-17T16:54:57.981Z,37.10
2023-02-17T16:57:28.752Z,37.40
2023-02-17T16:59:59.184Z,39.05
2023-02-17T17:02:33.349Z,38.80
2023-02-17T17:05:03.440Z,36.17
2023-02-17T17:07:34.764Z,40.45
2023-02-17T17:10:16.296Z,40.47
2023-02-17T17:12:48.506Z,39.78
2023-02-17T17:15:19.763Z,40.88
2023-02-17T17:18:09.775Z,43.03
2023-02-17T17:20:42.145Z,42.72
2023-02-17T17:23:16.898Z,40.83
2023-02-17T17:25:48.973Z,36.30
2023-02-17T17:28:21.046Z,34.97
2023-02-17T17:30:53.557Z,42.47
2023-02-17T17:33:23.717Z,38.40
2023-02-17T17:35:56.020Z,44.85
2023-02-17T17:38:26.142Z,43.83
2023-02-17T17:40:58.941Z,44.15
2023-02-17T17:43:29.443Z,43.13
2023-02-17T17:46:02.459Z,45.03
2023-02-17T17:48:32.664Z,40.58
2023-02-17T17:51:04.366Z,43.08
2023-02-17T17:53:34.767Z,42.50
2023-02-17T17:56:05.213Z,42.58
2023-02-17T17:58:39.766Z,41.33
2023-02-17T18:01:10.002Z,43.72
2023-02-17T18:03:40.375Z,44.58
2023-02-17T18:06:17.870Z,45.10
2023-02-17T18:08:51.383Z,43.75
2023-02-17T18:11:23.788Z,43.90
2023-02-17T18:13:57.524Z,44.80
2023-02-17T18:16:29.603Z,41.38
2023-02-17T18:19:02.249Z,39.78
2023-02-17T18:21:32.705Z,43.03
2023-02-17T18:24:02.761Z,46.85
2023-02-17T18:26:33.453Z,45.35
2023-02-17T18:29:03.992Z,38.63
2023-02-17T18:31:34.240Z,42.37
2023-02-17T18:34:04.616Z,42.10
2023-02-17T18:36:37.523Z,42.72
2023-02-17T18:39:08.187Z,44.25
2023-02-17T18:41:38.590Z,43.13
2023-02-17T18:44:08.816Z,38.95
2023-02-17T18:46:40.109Z,39.33
2023-02-17T18:49:11.611Z,43.05
2023-02-17T18:51:41.970Z,41.42
2023-02-17T18:54:13.302Z,39.22
2023-02-17T18:56:46.136Z,40.72
2023-02-17T18:59:16.244Z,39.58
2023-02-17T19:01:46.436Z,38.90
2023-02-17T19:04:17.699Z,39.05
2023-02-17T19:06:47.814Z,41.97
2023-02-17T19:09:18.264Z,44.65
2023-02-17T19:11:49.067Z,47.07
2023-02-17T19:14:19.260Z,40.85
2023-02-17T19:19:38.399Z,45.03
2023-02-17T19:22:10.858Z,40.67
2023-02-17T19:24:42.561Z,40.80
2023-02-17T19:27:14.222Z,43.55
2023-02-17T19:29:44.305Z,40.92
2023-02-17T19:32:14.494Z,43.83
2023-02-17T19:34:44.526Z,41.00
2023-02-17T19:37:14.635Z,43.47
2023-02-17T19:39:44.590Z,43.10
2023-02-17T19:42:14.560Z,38.55
2023-02-17T19:44:44.801Z,43.63
2023-02-17T19:47:17.808Z,46.17
2023-02-17T19:52:40.433Z,46.90
2023-02-17T19:57:44.124Z,48.47
2023-02-17T20:00:14.613Z,43.08
2023-02-17T20:02:44.648Z,46.80
2023-02-17T20:05:14.754Z,44.63
2023-02-17T20:07:46.302Z,41.17
2023-02-17T20:10:16.814Z,46.15
2023-02-17T20:12:47.142Z,41.45
2023-02-17T20:15:18.320Z,44.85
2023-02-17T20:17:48.468Z,49.45
2023-02-17T20:20:18.807Z,42.13
2023-02-17T20:22:48.833Z,44.75
2023-02-17T20:25:21.007Z,46.53
2023-02-17T20:27:51.086Z,46.97
2023-02-17T20:30:21.178Z,43.25
2023-02-17T20:32:52.766Z,37.30
2023-02-17T20:35:23.173Z,45.35
2023-02-17T20:37:52.988Z,46.97
2023-02-17T20:40:23.994Z,45.95
2023-02-17T20:42:54.008Z,41.92
2023-02-17T20:45:23.890Z,42.92
2023-02-17T20:47:54.112Z,40.53
2023-02-17T20:50:24.728Z,47.85
2023-02-17T20:52:54.733Z,43.47
2023-02-17T20:55:26.958Z,41.63
2023-02-17T20:57:58.024Z,42.65
2023-02-17T21:00:29.162Z,43.60
2023-02-17T21:03:00.021Z,40.72
2023-02-17T21:05:30.093Z,44.37
2023-02-17T21:08:00.770Z,43.58
2023-02-17T21:10:33.092Z,43.30
2023-02-17T21:13:03.825Z,44.97
2023-02-17T21:15:34.493Z,42.78
2023-02-17T21:18:04.551Z,40.90
2023-02-17T21:20:34.464Z,43.38
2023-02-17T21:23:04.301Z,42.08
2023-02-17T21:25:34.160Z,46.65
2023-02-17T21:28:03.968Z,39.65
2023-02-17T21:30:33.878Z,44.88
2023-02-17T21:33:03.803Z,40.88
2023-02-17T21:35:34.839Z,44.17
2023-02-17T21:38:04.876Z,41.50
2023-02-17T21:40:34.712Z,42.75
2023-02-17T21:43:22.990Z,44.50
2023-02-17T21:45:53.155Z,44.83
2023-02-17T21:48:24.507Z,41.53
2023-02-17T21:50:54.574Z,40.15
2023-02-17T21:53:24.409Z,42.30
2023-02-17T21:55:54.304Z,43.33
2023-02-17T21:58:24.625Z,40.10
2023-02-17T22:00:54.723Z,41.28
2023-02-17T22:03:25.014Z,39.45
2023-02-17T22:05:55.330Z,41.88
2023-02-17T22:08:26.565Z,40.80
2023-02-17T22:11:01.986Z,40.47
2023-02-17T22:14:05.264Z,41.17
2023-02-17T22:16:25.777Z,42.42
2023-02-17T22:19:02.961Z,42.10
2023-02-17T22:21:33.207Z,37.70
2023-02-17T22:24:04.154Z,40.05
2023-02-17T22:26:37.566Z,42.58
2023-02-17T22:29:08.092Z,43.60
2023-02-17T22:31:40.346Z,42.33
2023-02-17T22:34:12.555Z,41.22
2023-02-17T22:39:25.872Z,44.40
2023-02-17T22:41:56.467Z,43.63
2023-02-17T22:44:26.549Z,42.53
2023-02-17T22:47:01.122Z,39.88
2023-02-17T22:49:31.246Z,45.75
2023-02-17T22:52:01.145Z,46.80
2023-02-17T22:54:33.468Z,39.67
2023-02-17T22:57:03.704Z,43.65
2023-02-17T22:59:33.771Z,48.75
2023-02-17T23:02:03.636Z,54.17
2023-02-17T23:04:33.735Z,44.83
2023-02-17T23:07:03.685Z,47.65
2023-02-17T23:09:33.689Z,45.33
2023-02-17T23:12:03.722Z,43.42
2023-02-17T23:14:39.403Z,44.38
2023-02-17T23:17:12.840Z,40.95
2023-02-17T23:19:44.816Z,45.50
2023-02-17T23:22:18.930Z,49.10
2023-02-17T23:24:49.952Z,40.90
2023-02-17T23:27:20.104Z,47.28
2023-02-17T23:29:50.497Z,44.55
2023-02-17T23:32:20.937Z,47.75
2023-02-17T23:34:51.052Z,45.83
2023-02-17T23:37:21.666Z,45.50
2023-02-17T23:39:51.665Z,47.80
2023-02-17T23:42:22.457Z,47.33
2023-02-17T23:44:52.525Z,44.13
2023-02-17T23:47:22.422Z,46.80
2023-02-17T23:49:52.380Z,49.35
2023-02-17T23:52:22.301Z,49.15
2023-02-17T23:54:52.909Z,55.72
2023-02-17T23:57:24.134Z,48.85
2023-02-17T23:59:54.527Z,48.20
